Time;durP1;ratioP1;P1;durP2;ratioP2;P2;SDS_P1;SDS_P2;PMS_P1;PMS_P2;Temp;Humidity;BMP_temperature;BMP_pressure;BME280_temperature;BME280_humidity;BME280_pressure;Samples;Min_cycle;Max_cycle;Signal;HPM_P1;HPM_P2
2021/08/15 00:01:44;;;;;;;;;11.00;9.67;;;;;;;;5078821;28;45429;-83
2021/08/15 00:04:09;;;;;;;;;10.75;9.25;;;;;;;;5063531;28;45409;-83
2021/08/15 00:06:35;;;;;;;;;11.25;9.00;;;;;;;;5062607;28;46339;-83
2021/08/15 00:09:00;;;;;;;;;11.00;8.75;;;;;;;;5059976;28;45389;-83
2021/08/15 00:11:25;;;;;;;;;10.75;9.50;;;;;;;;5060365;28;45500;-84
2021/08/15 00:13:50;;;;;;;;;11.25;8.50;;;;;;;;5074452;28;45310;-83
2021/08/15 00:16:16;;;;;;;;;9.00;8.67;;;;;;;;5081759;28;45336;-84
2021/08/15 00:18:41;;;;;;;;;11.00;11.00;;;;;;;;5082138;28;45309;-84
2021/08/15 00:21:06;;;;;;;;;8.33;8.33;;;;;;;;5082119;28;45374;-84
2021/08/15 00:23:31;;;;;;;;;13.00;10.33;;;;;;;;5083904;28;45413;-83
2021/08/15 00:25:57;;;;;;;;;9.75;9.75;;;;;;;;5084992;28;45647;-84
2021/08/15 00:28:22;;;;;;;;;10.50;9.75;;;;;;;;5085516;28;45223;-84
2021/08/15 00:30:47;;;;;;;;;13.67;11.00;;;;;;;;5084474;28;45211;-84
2021/08/15 00:33:13;;;;;;;;;10.67;10.00;;;;;;;;5088992;28;45647;-83
2021/08/15 00:35:38;;;;;;;;;10.33;9.33;;;;;;;;5089675;28;46498;-82
2021/08/15 00:38:03;;;;;;;;;12.33;12.00;;;;;;;;5090889;28;45275;-84
2021/08/15 00:40:28;;;;;;;;;11.00;11.00;;;;;;;;5085572;28;45843;-84
2021/08/15 00:42:54;;;;;;;;;14.00;11.00;;;;;;;;5083391;28;45243;-84
2021/08/15 00:45:19;;;;;;;;;10.00;8.50;;;;;;;;5074690;28;46516;-83
2021/08/15 00:47:44;;;;;;;;;12.00;10.33;;;;;;;;5092918;28;45224;-83
2021/08/15 00:50:09;;;;;;;;;10.67;10.33;;;;;;;;5095287;28;45133;-83
2021/08/15 00:52:35;;;;;;;;;12.50;10.25;;;;;;;;5093426;28;45941;-83
2021/08/15 00:55:07;;;;;;;;;10.00;9.67;;;;;;;;5088706;28;45573;-84
2021/08/15 00:57:34;;;;;;;;;13.25;10.00;;;;;;;;5084357;28;45399;-83
2021/08/15 01:00:03;;;;;;;;;10.00;10.00;;;;;;;;5070811;28;45248;-84
2021/08/15 01:02:28;;;;;;;;;11.25;10.75;;;;;;;;5083902;28;45325;-84
2021/08/15 01:04:53;;;;;;;;;14.33;11.00;;;;;;;;5083888;28;45398;-83
2021/08/15 01:07:18;;;;;;;;;10.25;8.25;;;;;;;;5082971;28;46006;-83
2021/08/15 01:09:44;;;;;;;;;13.00;10.00;;;;;;;;5083858;28;45364;-84
2021/08/15 01:12:09;;;;;;;;;12.50;10.25;;;;;;;;5083504;27;45293;-84
2021/08/15 01:14:35;;;;;;;;;11.00;10.33;;;;;;;;5083764;28;45370;-84
2021/08/15 01:17:00;;;;;;;;;11.25;10.00;;;;;;;;5083452;28;45414;-84
2021/08/15 01:19:29;;;;;;;;;16.00;11.33;;;;;;;;5082349;28;45563;-84
2021/08/15 01:21:55;;;;;;;;;16.25;12.75;;;;;;;;5087304;28;45336;-84
2021/08/15 01:24:20;;;;;;;;;18.00;14.75;;;;;;;;5086699;28;46203;-84
2021/08/15 01:26:46;;;;;;;;;15.50;13.50;;;;;;;;5085884;28;45248;-84
2021/08/15 01:29:11;;;;;;;;;13.50;11.25;;;;;;;;5087744;28;45323;-84
2021/08/15 01:31:36;;;;;;;;;15.75;14.00;;;;;;;;5087535;28;45264;-84
2021/08/15 01:34:02;;;;;;;;;17.00;14.00;;;;;;;;5089354;28;46191;-84
2021/08/15 01:36:27;;;;;;;;;10.00;9.00;;;;;;;;5087705;28;45427;-84
2021/08/15 01:38:52;;;;;;;;;15.33;13.67;;;;;;;;5083098;28;45400;-84
2021/08/15 01:41:17;;;;;;;;;11.33;11.33;;;;;;;;5074912;28;44754;-83
2021/08/15 01:43:50;;;;;;;;;16.25;12.00;;;;;;;;5088811;28;45505;-82
2021/08/15 01:46:17;;;;;;;;;14.25;11.00;;;;;;;;5088009;28;45379;-83
2021/08/15 01:48:42;;;;;;;;;12.50;12.50;;;;;;;;5071740;28;44752;-83
2021/08/15 01:51:07;;;;;;;;;12.00;8.75;;;;;;;;5066951;28;45282;-83
2021/08/15 01:53:32;;;;;;;;;10.00;9.00;;;;;;;;5064775;28;45447;-83
2021/08/15 01:55:58;;;;;;;;;9.67;9.33;;;;;;;;5067903;28;45408;-83
2021/08/15 01:58:23;;;;;;;;;13.33;8.67;;;;;;;;5083331;28;45441;-84
2021/08/15 02:00:48;;;;;;;;;12.33;9.33;;;;;;;;5083649;28;45346;-83
2021/08/15 02:03:14;;;;;;;;;12.33;11.00;;;;;;;;5081947;28;46972;-83
2021/08/15 02:05:40;;;;;;;;;12.00;9.00;;;;;;;;5083046;28;45405;-83
2021/08/15 02:08:05;;;;;;;;;9.25;9.25;;;;;;;;5082758;28;45368;-84
2021/08/15 02:10:31;;;;;;;;;9.75;9.00;;;;;;;;5082954;28;45514;-83
2021/08/15 02:12:58;;;;;;;;;9.25;7.50;;;;;;;;5069736;28;48464;-83
2021/08/15 02:15:23;;;;;;;;;11.00;8.50;;;;;;;;5081338;28;45393;-84
2021/08/15 02:17:48;;;;;;;;;10.50;9.50;;;;;;;;5082220;28;45302;-84
2021/08/15 02:20:15;;;;;;;;;11.67;10.00;;;;;;;;5071080;28;45224;-83
2021/08/15 02:22:40;;;;;;;;;11.50;9.25;;;;;;;;5079294;28;45579;-83
2021/08/15 02:25:06;;;;;;;;;9.50;8.50;;;;;;;;5084649;28;45757;-82
2021/08/15 02:27:31;;;;;;;;;11.75;8.75;;;;;;;;5083272;28;45247;-83
2021/08/15 02:29:57;;;;;;;;;8.33;8.00;;;;;;;;5065733;28;45437;-84
2021/08/15 02:32:22;;;;;;;;;9.67;9.67;;;;;;;;5084427;28;45543;-84
2021/08/15 02:34:47;;;;;;;;;10.00;9.00;;;;;;;;5085633;28;45508;-84
2021/08/15 02:37:12;;;;;;;;;9.00;7.33;;;;;;;;5086918;28;45650;-83
2021/08/15 02:39:37;;;;;;;;;11.00;9.00;;;;;;;;5086441;28;45313;-83
2021/08/15 02:42:03;;;;;;;;;8.00;8.00;;;;;;;;5083398;28;46000;-84
2021/08/15 02:44:28;;;;;;;;;10.25;7.75;;;;;;;;5082330;28;45384;-83
2021/08/15 02:46:53;;;;;;;;;7.00;7.00;;;;;;;;5082844;28;45432;-83
2021/08/15 02:49:18;;;;;;;;;11.25;9.00;;;;;;;;5080759;28;45251;-83
2021/08/15 02:51:44;;;;;;;;;13.33;7.67;;;;;;;;5082030;28;45435;-83
2021/08/15 02:54:09;;;;;;;;;8.33;7.33;;;;;;;;5083498;28;45492;-83
2021/08/15 02:56:34;;;;;;;;;7.75;7.50;;;;;;;;5075536;28;45494;-83
2021/08/15 02:58:59;;;;;;;;;6.67;6.67;;;;;;;;5082946;28;45587;-83
2021/08/15 03:01:25;;;;;;;;;10.33;7.67;;;;;;;;5082489;28;45342;-83
2021/08/15 03:03:50;;;;;;;;;5.75;5.75;;;;;;;;5082245;28;45399;-83
2021/08/15 03:06:15;;;;;;;;;8.00;7.00;;;;;;;;5082526;28;45315;-84
2021/08/15 03:08:40;;;;;;;;;9.67;9.33;;;;;;;;5082659;28;45535;-83
2021/08/15 03:11:05;;;;;;;;;9.00;8.00;;;;;;;;5082061;28;46212;-83
2021/08/15 03:13:31;;;;;;;;;11.00;9.00;;;;;;;;5085863;27;45466;-83
2021/08/15 03:15:56;;;;;;;;;8.67;8.00;;;;;;;;5088443;27;44747;-83
2021/08/15 03:18:21;;;;;;;;;13.00;7.00;;;;;;;;5087239;28;45410;-83
2021/08/15 03:20:46;;;;;;;;;8.00;6.25;;;;;;;;5086093;28;46503;-83
2021/08/15 03:23:12;;;;;;;;;10.33;8.67;;;;;;;;5085373;28;45404;-83
2021/08/15 03:25:37;;;;;;;;;8.25;8.00;;;;;;;;5087018;28;45741;-83
2021/08/15 03:28:05;;;;;;;;;11.75;8.25;;;;;;;;5095751;27;45535;-83
2021/08/15 03:33:39;;;;;;;;;11.00;8.25;;;;;;;;3409471;25;45150;-81
2021/08/15 03:36:15;;;;;;;;;9.00;8.00;;;;;;;;5101680;27;44576;-82
2021/08/15 03:38:44;;;;;;;;;8.75;6.50;;;;;;;;5087231;27;44714;-83
2021/08/15 03:41:11;;;;;;;;;8.00;8.00;;;;;;;;5086830;27;45001;-82
2021/08/15 03:43:39;;;;;;;;;10.25;7.25;;;;;;;;5103613;27;44709;-83
2021/08/15 03:46:20;;;;;;;;;9.25;8.00;;;;;;;;5105681;27;45188;-83
2021/08/15 03:48:55;;;;;;;;;7.25;7.25;;;;;;;;5096007;27;45504;-82
2021/08/15 03:51:21;;;;;;;;;8.33;8.00;;;;;;;;5081167;28;45449;-82
2021/08/15 03:53:46;;;;;;;;;7.25;7.00;;;;;;;;5081153;28;45650;-82
2021/08/15 03:56:11;;;;;;;;;8.00;8.00;;;;;;;;5073391;28;45279;-82
2021/08/15 03:58:36;;;;;;;;;9.75;7.00;;;;;;;;5079982;28;45263;-82
2021/08/15 04:01:02;;;;;;;;;8.00;8.00;;;;;;;;5083604;28;45420;-82
2021/08/15 04:03:27;;;;;;;;;5.75;5.75;;;;;;;;5083009;28;45311;-82
2021/08/15 04:05:55;;;;;;;;;9.33;7.33;;;;;;;;5081326;28;45295;-82
2021/08/15 04:08:21;;;;;;;;;11.75;8.75;;;;;;;;5082696;28;45231;-82
2021/08/15 04:10:46;;;;;;;;;10.25;7.25;;;;;;;;5084785;28;46345;-82
2021/08/15 04:13:11;;;;;;;;;9.33;7.00;;;;;;;;5085930;28;45192;-82
2021/08/15 04:15:37;;;;;;;;;9.33;7.67;;;;;;;;5067636;28;45251;-82
2021/08/15 04:18:02;;;;;;;;;7.33;7.00;;;;;;;;5087755;28;45211;-82
2021/08/15 04:20:27;;;;;;;;;11.00;8.00;;;;;;;;5089030;28;45330;-82
2021/08/15 04:22:52;;;;;;;;;12.33;8.33;;;;;;;;5088516;28;45302;-82
2021/08/15 04:25:18;;;;;;;;;8.75;7.50;;;;;;;;5088843;28;45263;-82
2021/08/15 04:27:43;;;;;;;;;7.00;7.00;;;;;;;;5069942;28;45243;-82
2021/08/15 04:30:09;;;;;;;;;7.50;6.25;;;;;;;;5066828;28;48140;-82
2021/08/15 04:32:35;;;;;;;;;8.50;8.25;;;;;;;;5085832;28;45749;-83
2021/08/15 04:35:00;;;;;;;;;7.50;7.00;;;;;;;;5085164;28;45292;-82
2021/08/15 04:37:26;;;;;;;;;5.25;4.50;;;;;;;;5084980;28;45384;-82
2021/08/15 04:39:52;;;;;;;;;8.50;6.25;;;;;;;;5066304;28;47089;-82
2021/08/15 04:42:18;;;;;;;;;12.00;8.25;;;;;;;;5083801;28;45390;-82
2021/08/15 04:44:43;;;;;;;;;10.00;5.50;;;;;;;;5084629;28;45395;-82
2021/08/15 04:47:08;;;;;;;;;8.50;8.25;;;;;;;;5085280;28;45393;-81
2021/08/15 04:49:33;;;;;;;;;8.67;7.33;;;;;;;;5085485;28;45446;-82
2021/08/15 04:51:59;;;;;;;;;7.00;7.00;;;;;;;;5084429;28;45625;-81
2021/08/15 04:54:27;;;;;;;;;9.00;8.00;;;;;;;;5084274;28;45196;-82
2021/08/15 04:56:53;;;;;;;;;6.25;6.25;;;;;;;;5075142;28;45232;-82
2021/08/15 04:59:18;;;;;;;;;10.25;8.50;;;;;;;;5084022;28;45232;-82
2021/08/15 05:01:43;;;;;;;;;7.25;7.00;;;;;;;;5083999;28;45417;-82
2021/08/15 05:04:09;;;;;;;;;9.67;6.33;;;;;;;;5065693;28;45335;-81
2021/08/15 05:06:34;;;;;;;;;8.00;6.67;;;;;;;;5083897;28;45485;-82
2021/08/15 05:08:59;;;;;;;;;6.67;6.33;;;;;;;;5083540;28;46283;-82
2021/08/15 05:11:24;;;;;;;;;10.33;8.00;;;;;;;;5065450;28;45432;-82
2021/08/15 05:13:49;;;;;;;;;6.00;6.00;;;;;;;;5065663;28;45417;-82
2021/08/15 05:16:15;;;;;;;;;7.25;6.00;;;;;;;;5083339;28;45499;-82
2021/08/15 05:18:40;;;;;;;;;11.50;7.00;;;;;;;;5083028;28;45388;-82
2021/08/15 05:21:05;;;;;;;;;10.67;7.00;;;;;;;;5083641;28;45364;-82
2021/08/15 05:23:31;;;;;;;;;8.75;6.75;;;;;;;;5066649;28;45319;-82
2021/08/15 05:25:56;;;;;;;;;9.25;8.00;;;;;;;;5084732;28;45321;-82
2021/08/15 05:28:21;;;;;;;;;8.33;6.33;;;;;;;;5086716;28;45401;-82
2021/08/15 05:30:46;;;;;;;;;6.25;5.75;;;;;;;;5086956;28;45346;-82
2021/08/15 05:33:11;;;;;;;;;8.00;6.67;;;;;;;;5070913;28;45251;-82
2021/08/15 05:35:37;;;;;;;;;8.50;7.50;;;;;;;;5088203;28;45484;-82
2021/08/15 05:38:02;;;;;;;;;9.33;7.00;;;;;;;;5087776;28;46424;-82
2021/08/15 05:40:27;;;;;;;;;10.33;6.00;;;;;;;;5065803;28;45369;-82
2021/08/15 05:42:52;;;;;;;;;8.33;8.00;;;;;;;;5083944;28;45449;-82
2021/08/15 05:45:18;;;;;;;;;9.00;7.00;;;;;;;;5083119;28;45271;-82
2021/08/15 05:47:43;;;;;;;;;10.00;6.50;;;;;;;;5064471;28;47115;-82
2021/08/15 05:50:09;;;;;;;;;5.67;5.67;;;;;;;;5065300;28;45499;-82
2021/08/15 05:52:35;;;;;;;;;9.00;5.75;;;;;;;;5083240;28;45196;-82
2021/08/15 05:55:00;;;;;;;;;9.25;7.00;;;;;;;;5083755;28;45537;-82
2021/08/15 05:57:25;;;;;;;;;8.67;6.33;;;;;;;;5066552;28;48228;-82
2021/08/15 05:59:51;;;;;;;;;11.50;7.75;;;;;;;;5083376;28;45410;-81
2021/08/15 06:02:16;;;;;;;;;8.67;8.33;;;;;;;;5084157;28;45354;-82
2021/08/15 06:04:41;;;;;;;;;8.00;7.67;;;;;;;;5082880;28;45477;-82
2021/08/15 06:07:06;;;;;;;;;9.33;7.00;;;;;;;;5083201;28;45393;-81
2021/08/15 06:09:32;;;;;;;;;9.00;7.25;;;;;;;;5082579;28;45231;-82
2021/08/15 06:12:02;;;;;;;;;9.00;6.00;;;;;;;;5084103;28;45238;-82
2021/08/15 06:14:28;;;;;;;;;8.00;6.25;;;;;;;;5082791;28;45369;-81
2021/08/15 06:16:53;;;;;;;;;13.00;8.00;;;;;;;;5064197;28;47346;-81
2021/08/15 06:19:18;;;;;;;;;8.67;7.33;;;;;;;;5085090;28;45171;-82
2021/08/15 06:21:43;;;;;;;;;10.00;6.00;;;;;;;;5088218;28;45283;-81
2021/08/15 06:24:09;;;;;;;;;7.50;5.75;;;;;;;;5085620;28;45484;-82
2021/08/15 06:26:34;;;;;;;;;8.50;7.00;;;;;;;;5087392;28;45371;-82
2021/08/15 06:28:59;;;;;;;;;9.67;5.67;;;;;;;;5090219;28;45356;-82
2021/08/15 06:31:24;;;;;;;;;11.00;6.00;;;;;;;;5063586;28;45368;-82
2021/08/15 06:33:50;;;;;;;;;10.00;7.25;;;;;;;;5082639;28;45443;-82
2021/08/15 06:36:15;;;;;;;;;8.50;7.00;;;;;;;;5084584;28;45281;-82
2021/08/15 06:38:40;;;;;;;;;10.33;7.33;;;;;;;;5086591;28;45484;-82
2021/08/15 06:41:07;;;;;;;;;11.00;7.00;;;;;;;;5086734;28;45555;-82
2021/08/15 06:43:32;;;;;;;;;8.50;6.00;;;;;;;;5086127;28;45193;-81
2021/08/15 06:45:58;;;;;;;;;10.00;7.00;;;;;;;;5086407;28;45301;-81
2021/08/15 06:48:23;;;;;;;;;7.75;6.00;;;;;;;;5085237;28;45314;-82
2021/08/15 06:50:53;;;;;;;;;10.50;5.75;;;;;;;;5082059;28;45377;-82
2021/08/15 06:53:18;;;;;;;;;14.25;6.00;;;;;;;;5081470;28;45302;-83
2021/08/15 06:55:43;;;;;;;;;7.67;7.33;;;;;;;;5077492;28;45350;-82
2021/08/15 06:58:09;;;;;;;;;9.00;7.00;;;;;;;;5057753;28;45495;-82
2021/08/15 07:00:34;;;;;;;;;5.33;4.00;;;;;;;;5081891;28;45572;-82
2021/08/15 07:03:00;;;;;;;;;9.50;7.00;;;;;;;;5081401;28;45229;-82
2021/08/15 07:05:25;;;;;;;;;6.50;5.00;;;;;;;;5081322;28;45476;-82
2021/08/15 07:07:50;;;;;;;;;8.67;6.67;;;;;;;;5081291;28;45367;-82
2021/08/15 07:10:15;;;;;;;;;7.25;5.00;;;;;;;;5082812;28;45519;-81
2021/08/15 07:12:41;;;;;;;;;9.33;6.00;;;;;;;;5064178;28;45252;-82
2021/08/15 07:15:06;;;;;;;;;7.33;7.00;;;;;;;;5062971;28;47327;-82
2021/08/15 07:17:35;;;;;;;;;10.50;7.00;;;;;;;;5062688;28;45534;-82
2021/08/15 07:20:01;;;;;;;;;7.00;7.00;;;;;;;;5060539;28;45441;-82
2021/08/15 07:22:28;;;;;;;;;9.00;7.00;;;;;;;;5075156;28;45540;-81
2021/08/15 07:24:53;;;;;;;;;9.25;5.00;;;;;;;;5063111;28;47500;-82
2021/08/15 07:27:18;;;;;;;;;7.00;6.00;;;;;;;;5081667;28;45321;-82
2021/08/15 07:29:44;;;;;;;;;7.67;7.00;;;;;;;;5083188;28;45397;-82
2021/08/15 07:32:09;;;;;;;;;12.00;8.50;;;;;;;;5082389;28;45483;-82
2021/08/15 07:34:34;;;;;;;;;9.00;7.00;;;;;;;;5063953;28;48327;-82
2021/08/15 07:36:59;;;;;;;;;9.33;8.00;;;;;;;;5082512;28;44712;-82
2021/08/15 07:39:24;;;;;;;;;9.67;6.67;;;;;;;;5082822;28;45621;-82
2021/08/15 07:41:50;;;;;;;;;10.33;7.00;;;;;;;;5064010;28;45441;-82
2021/08/15 07:44:15;;;;;;;;;10.33;8.00;;;;;;;;5084066;28;46115;-83
2021/08/15 07:46:40;;;;;;;;;5.75;5.75;;;;;;;;5067715;28;45220;-83
2021/08/15 07:49:05;;;;;;;;;5.33;5.00;;;;;;;;5086037;28;45313;-83
2021/08/15 07:51:31;;;;;;;;;10.67;5.33;;;;;;;;5086863;28;45233;-84
2021/08/15 07:53:56;;;;;;;;;9.00;7.50;;;;;;;;5086392;28;45252;-84
2021/08/15 07:56:22;;;;;;;;;6.75;6.75;;;;;;;;5067121;28;45329;-84
2021/08/15 07:58:47;;;;;;;;;13.00;6.00;;;;;;;;5086954;28;45452;-84
2021/08/15 08:01:12;;;;;;;;;8.25;7.25;;;;;;;;5065836;28;45556;-85
2021/08/15 08:03:37;;;;;;;;;8.00;5.33;;;;;;;;5063804;28;47516;-84
2021/08/15 08:06:02;;;;;;;;;8.00;6.75;;;;;;;;5081719;28;45152;-85
2021/08/15 08:08:28;;;;;;;;;8.33;6.00;;;;;;;;5063880;28;45359;-84
2021/08/15 08:10:56;;;;;;;;;8.33;6.33;;;;;;;;5081015;28;45437;-84
2021/08/15 08:13:22;;;;;;;;;7.25;5.75;;;;;;;;5062776;28;47424;-85
2021/08/15 08:15:47;;;;;;;;;6.75;5.50;;;;;;;;5081545;28;45342;-85
2021/08/15 08:18:12;;;;;;;;;6.25;5.75;;;;;;;;5083361;28;45414;-85
2021/08/15 08:20:38;;;;;;;;;6.00;6.00;;;;;;;;5082785;28;45439;-85
2021/08/15 08:23:04;;;;;;;;;12.50;9.00;;;;;;;;5085700;28;45329;-85
2021/08/15 08:25:29;;;;;;;;;6.50;5.50;;;;;;;;5085372;28;45210;-86
2021/08/15 08:27:55;;;;;;;;;9.50;6.50;;;;;;;;5085309;28;45485;-86
2021/08/15 08:30:20;;;;;;;;;9.33;5.00;;;;;;;;5062127;28;45402;-86
2021/08/15 08:32:45;;;;;;;;;8.25;6.25;;;;;;;;5079641;28;46422;-86
2021/08/15 08:35:10;;;;;;;;;7.33;6.33;;;;;;;;5080045;28;45167;-86
2021/08/15 08:37:36;;;;;;;;;8.75;7.25;;;;;;;;5079566;28;45441;-86
2021/08/15 08:40:02;;;;;;;;;8.25;7.25;;;;;;;;5080421;28;45199;-86
2021/08/15 08:42:27;;;;;;;;;8.50;7.25;;;;;;;;5080750;28;45424;-86
2021/08/15 08:44:56;;;;;;;;;8.75;6.75;;;;;;;;5081865;28;45210;-86
2021/08/15 08:47:21;;;;;;;;;7.50;7.50;;;;;;;;5083909;28;45252;-86
2021/08/15 08:49:46;;;;;;;;;7.75;7.50;;;;;;;;5082721;28;45357;-86
2021/08/15 08:52:11;;;;;;;;;9.50;7.00;;;;;;;;5063426;28;47766;-86
2021/08/15 08:54:37;;;;;;;;;8.00;7.00;;;;;;;;5096846;28;45413;-86
2021/08/15 08:57:02;;;;;;;;;8.33;8.33;;;;;;;;5078618;28;45281;-86
2021/08/15 08:59:27;;;;;;;;;7.50;7.50;;;;;;;;5076985;28;45263;-86
2021/08/15 09:01:53;;;;;;;;;8.75;8.50;;;;;;;;5085216;28;46055;-86
2021/08/15 09:04:18;;;;;;;;;10.25;8.75;;;;;;;;5086683;28;45302;-85
2021/08/15 09:06:43;;;;;;;;;9.00;7.25;;;;;;;;5106651;27;44802;-86
2021/08/15 09:09:10;;;;;;;;;9.00;9.00;;;;;;;;5070726;28;45586;-86
2021/08/15 09:11:35;;;;;;;;;9.50;8.25;;;;;;;;5084551;28;46394;-86
2021/08/15 09:14:01;;;;;;;;;11.25;9.00;;;;;;;;5081057;28;45519;-86
2021/08/15 09:16:46;;;;;;;;;11.67;8.00;;;;;;;;5084230;28;45620;-86
2021/08/15 09:19:24;;;;;;;;;7.50;7.50;;;;;;;;5083608;28;45410;-86
2021/08/15 09:21:50;;;;;;;;;8.00;8.00;;;;;;;;5084257;28;46613;-86
2021/08/15 09:24:15;;;;;;;;;9.75;9.50;;;;;;;;5084889;28;45396;-86
2021/08/15 09:26:53;;;;;;;;;10.00;10.00;;;;;;;;5085435;28;45577;-86
2021/08/15 09:29:18;;;;;;;;;10.00;10.00;;;;;;;;5086398;28;45358;-87
2021/08/15 09:31:44;;;;;;;;;7.33;7.33;;;;;;;;5071656;28;47229;-86
2021/08/15 09:34:23;;;;;;;;;8.00;8.00;;;;;;;;5091648;28;45196;-87
2021/08/15 09:36:48;;;;;;;;;10.75;8.25;;;;;;;;5089880;28;45315;-86
2021/08/15 09:39:13;;;;;;;;;11.75;10.00;;;;;;;;5088710;28;45195;-86
2021/08/15 09:41:39;;;;;;;;;10.50;10.50;;;;;;;;5070049;28;47032;-87
2021/08/15 09:44:23;;;;;;;;;12.00;10.25;;;;;;;;5084248;28;45382;-86
2021/08/15 09:46:55;;;;;;;;;9.00;9.00;;;;;;;;5066195;28;45362;-87
2021/08/15 09:49:20;;;;;;;;;11.25;10.75;;;;;;;;5083990;28;45573;-87
2021/08/15 09:51:45;;;;;;;;;10.00;9.33;;;;;;;;5083429;28;45159;-86
2021/08/15 09:54:14;;;;;;;;;12.25;11.25;;;;;;;;5083203;28;45151;-87
2021/08/15 09:56:41;;;;;;;;;11.75;10.75;;;;;;;;5073928;28;45375;-87
2021/08/15 09:59:10;;;;;;;;;11.25;9.75;;;;;;;;5084027;28;45539;-87
2021/08/15 10:01:36;;;;;;;;;10.00;8.25;;;;;;;;5083609;28;45642;-87
2021/08/15 10:04:01;;;;;;;;;12.75;10.50;;;;;;;;5072854;28;46444;-87
2021/08/15 10:06:26;;;;;;;;;11.00;10.25;;;;;;;;5060403;28;45749;-87
2021/08/15 10:08:52;;;;;;;;;10.25;10.00;;;;;;;;5082993;28;45211;-87
2021/08/15 10:11:17;;;;;;;;;14.00;10.75;;;;;;;;5065307;28;47101;-87
2021/08/15 10:13:42;;;;;;;;;11.33;11.33;;;;;;;;5062301;28;45909;-87
2021/08/15 10:16:08;;;;;;;;;11.00;11.00;;;;;;;;5065199;28;45559;-87
2021/08/15 10:18:36;;;;;;;;;11.25;10.50;;;;;;;;5083663;28;45242;-87
2021/08/15 10:21:06;;;;;;;;;10.75;9.75;;;;;;;;5086582;28;46558;-86
2021/08/15 10:23:39;;;;;;;;;9.75;9.50;;;;;;;;5065886;28;45207;-86
2021/08/15 10:26:24;;;;;;;;;12.25;11.00;;;;;;;;5080225;28;45335;-87
2021/08/15 10:28:49;;;;;;;;;10.00;10.00;;;;;;;;5082630;28;45377;-87
2021/08/15 10:31:14;;;;;;;;;12.00;11.33;;;;;;;;5082755;28;45349;-86
2021/08/15 10:33:50;;;;;;;;;9.50;8.75;;;;;;;;5083331;28;45262;-86
2021/08/15 10:36:16;;;;;;;;;11.75;11.25;;;;;;;;5083735;28;45212;-86
2021/08/15 10:38:41;;;;;;;;;9.33;8.33;;;;;;;;5065303;28;45513;-86
2021/08/15 10:41:06;;;;;;;;;10.00;9.00;;;;;;;;5086575;28;46152;-86
2021/08/15 10:43:31;;;;;;;;;11.25;9.50;;;;;;;;5086847;28;45187;-86
2021/08/15 10:46:10;;;;;;;;;8.33;8.00;;;;;;;;5087109;28;45579;-86
2021/08/15 10:48:54;;;;;;;;;10.00;7.75;;;;;;;;5086878;28;45310;-86
2021/08/15 10:51:38;;;;;;;;;11.00;9.50;;;;;;;;5086366;28;45552;-86
2021/08/15 10:54:03;;;;;;;;;10.75;10.75;;;;;;;;5064362;28;45227;-86
2021/08/15 10:56:47;;;;;;;;;10.75;9.50;;;;;;;;5073722;28;45390;-86
2021/08/15 10:59:32;;;;;;;;;7.50;7.50;;;;;;;;5064829;28;46584;-86
2021/08/15 11:02:09;;;;;;;;;8.50;7.25;;;;;;;;5082181;28;46469;-86
2021/08/15 11:04:35;;;;;;;;;9.50;7.75;;;;;;;;5083535;28;45508;-86
2021/08/15 11:07:00;;;;;;;;;10.50;9.75;;;;;;;;5069244;28;45532;-86
2021/08/15 11:09:45;;;;;;;;;11.67;8.00;;;;;;;;5066820;28;45376;-86
2021/08/15 11:12:12;;;;;;;;;8.75;8.50;;;;;;;;5083517;28;45788;-86
2021/08/15 11:14:52;;;;;;;;;10.00;8.75;;;;;;;;5078287;28;45366;-86
2021/08/15 11:17:17;;;;;;;;;10.00;8.50;;;;;;;;5062433;28;45429;-86
2021/08/15 11:19:43;;;;;;;;;8.67;8.67;;;;;;;;5080863;28;45555;-86
2021/08/15 11:22:38;;;;;;;;;11.25;9.75;;;;;;;;5080870;28;46020;-86
2021/08/15 11:25:04;;;;;;;;;9.50;9.50;;;;;;;;5057525;28;45426;-85
2021/08/15 11:27:29;;;;;;;;;8.75;8.75;;;;;;;;5080877;28;45499;-86
2021/08/15 11:29:55;;;;;;;;;8.75;8.00;;;;;;;;5062614;28;45496;-86
2021/08/15 11:32:23;;;;;;;;;9.25;8.00;;;;;;;;5080385;28;45420;-85
2021/08/15 11:35:00;;;;;;;;;9.25;8.75;;;;;;;;5080964;28;45254;-85
2021/08/15 11:37:29;;;;;;;;;8.25;7.75;;;;;;;;5062391;28;45424;-85
2021/08/15 11:39:55;;;;;;;;;8.75;8.75;;;;;;;;5080939;28;45362;-85
2021/08/15 11:42:24;;;;;;;;;11.50;8.00;;;;;;;;5094924;28;45352;-85
2021/08/15 11:44:56;;;;;;;;;11.25;8.75;;;;;;;;5092656;28;44751;-85
2021/08/15 11:47:23;;;;;;;;;6.75;6.75;;;;;;;;5063830;28;45457;-85
2021/08/15 11:49:48;;;;;;;;;7.25;7.25;;;;;;;;5082093;28;45311;-85
2021/08/15 11:52:15;;;;;;;;;10.50;9.00;;;;;;;;5083630;28;45599;-85
2021/08/15 11:54:41;;;;;;;;;8.75;8.75;;;;;;;;5069797;28;45328;-85
2021/08/15 11:57:10;;;;;;;;;8.50;8.00;;;;;;;;5086543;28;45213;-85
2021/08/15 11:59:36;;;;;;;;;4.25;3.75;;;;;;;;5068279;28;45276;-85
2021/08/15 12:02:01;;;;;;;;;10.75;8.50;;;;;;;;5085050;28;45405;-85
2021/08/15 12:04:26;;;;;;;;;10.33;8.67;;;;;;;;5063643;28;45425;-85
2021/08/15 12:06:52;;;;;;;;;7.00;7.00;;;;;;;;5066558;28;45359;-85
2021/08/15 12:09:25;;;;;;;;;13.00;10.00;;;;;;;;5064692;28;45568;-85
2021/08/15 12:11:54;;;;;;;;;11.25;8.50;;;;;;;;5083645;28;45899;-85
2021/08/15 12:14:20;;;;;;;;;9.25;7.50;;;;;;;;5063617;28;45184;-85
2021/08/15 12:16:58;;;;;;;;;7.25;6.75;;;;;;;;5081758;28;45278;-85
2021/08/15 12:19:24;;;;;;;;;7.50;7.50;;;;;;;;5062929;28;45728;-85
2021/08/15 12:21:50;;;;;;;;;8.25;7.50;;;;;;;;5081403;28;45417;-85
2021/08/15 12:24:22;;;;;;;;;10.00;8.25;;;;;;;;5063004;28;45421;-85
2021/08/15 12:27:07;;;;;;;;;8.25;7.25;;;;;;;;5081943;28;45164;-85
2021/08/15 12:29:32;;;;;;;;;9.00;9.00;;;;;;;;5070368;28;45536;-84
2021/08/15 12:32:03;;;;;;;;;11.00;9.67;;;;;;;;5083801;28;46496;-85
2021/08/15 12:34:29;;;;;;;;;8.25;8.00;;;;;;;;5082137;28;45836;-85
2021/08/15 12:36:55;;;;;;;;;8.75;7.25;;;;;;;;5083953;28;45373;-85
2021/08/15 12:39:31;;;;;;;;;9.25;9.25;;;;;;;;5083797;28;45165;-84
2021/08/15 12:42:04;;;;;;;;;12.25;6.50;;;;;;;;5084106;28;45333;-84
2021/08/15 12:44:31;;;;;;;;;11.75;8.25;;;;;;;;5067357;28;45304;-84
2021/08/15 12:46:57;;;;;;;;;12.00;8.75;;;;;;;;5066892;28;45419;-85
2021/08/15 12:49:30;;;;;;;;;9.75;7.25;;;;;;;;5065684;28;45525;-85
2021/08/15 12:52:09;;;;;;;;;7.75;7.75;;;;;;;;5083647;28;45357;-84
2021/08/15 12:54:34;;;;;;;;;6.00;6.00;;;;;;;;5085654;28;45286;-85
2021/08/15 12:57:00;;;;;;;;;8.33;8.33;;;;;;;;5080144;28;45334;-85
2021/08/15 12:59:26;;;;;;;;;10.00;8.00;;;;;;;;5077440;28;45422;-85
2021/08/15 13:01:51;;;;;;;;;6.50;5.50;;;;;;;;5085580;28;45417;-84
2021/08/15 13:04:17;;;;;;;;;12.25;10.50;;;;;;;;5083010;28;45410;-84
2021/08/15 13:06:42;;;;;;;;;8.00;8.00;;;;;;;;5064956;28;45551;-84
2021/08/15 13:09:07;;;;;;;;;10.50;8.50;;;;;;;;5082713;28;45457;-84
2021/08/15 13:11:32;;;;;;;;;7.50;7.00;;;;;;;;5085017;28;46236;-84
2021/08/15 13:13:58;;;;;;;;;8.75;7.75;;;;;;;;5079265;28;45303;-85
2021/08/15 13:16:23;;;;;;;;;8.75;7.00;;;;;;;;5083129;28;45234;-84
2021/08/15 13:18:48;;;;;;;;;10.00;7.33;;;;;;;;5064515;28;45362;-84
2021/08/15 13:21:13;;;;;;;;;11.75;8.25;;;;;;;;5082601;28;45384;-84
2021/08/15 13:23:39;;;;;;;;;10.33;8.33;;;;;;;;5064506;28;45494;-84
2021/08/15 13:26:04;;;;;;;;;7.33;5.33;;;;;;;;5082785;28;45650;-84
2021/08/15 13:28:29;;;;;;;;;8.00;8.00;;;;;;;;5083441;28;45611;-84
2021/08/15 13:30:54;;;;;;;;;9.00;8.00;;;;;;;;5087011;28;46188;-84
2021/08/15 13:33:20;;;;;;;;;9.33;7.33;;;;;;;;5087186;28;45552;-84
2021/08/15 13:35:45;;;;;;;;;10.25;9.00;;;;;;;;5070171;28;45410;-84
2021/08/15 13:38:13;;;;;;;;;9.00;6.75;;;;;;;;5086109;28;45140;-84
2021/08/15 13:40:39;;;;;;;;;10.50;8.25;;;;;;;;5085804;28;46234;-84
2021/08/15 13:43:04;;;;;;;;;8.67;8.67;;;;;;;;5083818;28;45230;-84
2021/08/15 13:45:29;;;;;;;;;8.00;7.00;;;;;;;;5083837;28;45253;-84
2021/08/15 13:47:54;;;;;;;;;9.00;7.25;;;;;;;;5082732;28;45365;-84
2021/08/15 13:50:21;;;;;;;;;9.50;7.75;;;;;;;;5064600;28;48365;-84
2021/08/15 13:52:46;;;;;;;;;7.25;7.25;;;;;;;;5082911;28;45564;-84
2021/08/15 13:55:12;;;;;;;;;8.50;7.00;;;;;;;;5082877;28;45341;-84
2021/08/15 13:57:37;;;;;;;;;11.50;10.00;;;;;;;;5082534;28;45454;-84
2021/08/15 14:00:03;;;;;;;;;8.00;6.00;;;;;;;;5064319;28;47312;-83
2021/08/15 14:02:29;;;;;;;;;10.50;8.75;;;;;;;;5083102;28;45711;-84
2021/08/15 14:04:54;;;;;;;;;9.00;9.00;;;;;;;;5083064;28;45358;-84
2021/08/15 14:07:19;;;;;;;;;8.67;8.67;;;;;;;;5067732;28;45287;-84
2021/08/15 14:09:44;;;;;;;;;8.00;6.75;;;;;;;;5101405;27;45207;-84
2021/08/15 14:12:09;;;;;;;;;12.00;7.33;;;;;;;;5091219;28;45499;-84
2021/08/15 14:14:35;;;;;;;;;9.00;9.00;;;;;;;;5073759;28;45329;-84
2021/08/15 14:17:00;;;;;;;;;7.25;7.25;;;;;;;;5087596;28;45209;-84
2021/08/15 14:19:25;;;;;;;;;8.67;7.33;;;;;;;;5086946;28;45384;-84
2021/08/15 14:21:50;;;;;;;;;9.33;7.33;;;;;;;;5087707;28;45291;-84
2021/08/15 14:24:15;;;;;;;;;7.50;7.50;;;;;;;;5085524;28;45176;-84
2021/08/15 14:26:42;;;;;;;;;8.00;7.25;;;;;;;;5084717;28;45371;-84
2021/08/15 14:29:07;;;;;;;;;8.75;8.00;;;;;;;;5082835;28;45249;-84
2021/08/15 14:31:32;;;;;;;;;5.67;5.67;;;;;;;;5082868;28;45408;-83
2021/08/15 14:33:58;;;;;;;;;9.00;7.33;;;;;;;;5083321;28;45383;-84
2021/08/15 14:36:23;;;;;;;;;10.33;9.67;;;;;;;;5063808;28;45243;-83